createdAt,value
2022-10-07T00:01:00.407Z,20.92
2022-10-07T00:03:28.551Z,17.60
2022-10-07T00:06:13.735Z,15.50
2022-10-07T00:08:43.348Z,18.60
2022-10-07T00:11:18.262Z,16.15
2022-10-07T00:13:46.523Z,13.55
2022-10-07T00:16:17.343Z,18.95
2022-10-07T00:18:45.157Z,14.32
2022-10-07T00:21:15.644Z,14.18
2022-10-07T00:23:43.874Z,18.95
2022-10-07T00:26:16.641Z,16.08
2022-10-07T00:28:44.477Z,16.00
2022-10-07T00:31:21.561Z,14.25
2022-10-07T00:33:50.092Z,12.85
2022-10-07T00:36:23.439Z,14.25
2022-10-07T00:38:57.103Z,13.77
2022-10-07T00:41:30.053Z,20.23
2022-10-07T00:43:59.546Z,19.80
2022-10-07T00:46:36.336Z,17.85
2022-10-07T00:49:08.004Z,17.23
2022-10-07T00:51:36.082Z,15.82
2022-10-07T00:54:13.045Z,17.65
2022-10-07T00:56:42.596Z,18.90
2022-10-07T00:59:10.184Z,21.30
2022-10-07T01:01:38.156Z,15.75
2022-10-07T01:04:05.552Z,16.50
2022-10-07T01:06:32.769Z,11.95
2022-10-07T01:08:59.957Z,15.65
2022-10-07T01:11:55.019Z,13.38
2022-10-07T01:14:56.537Z,13.10
2022-10-07T01:17:36.735Z,16.55
2022-10-07T01:20:28.691Z,12.85
2022-10-07T01:23:15.943Z,15.73
2022-10-07T01:25:57.799Z,14.77
2022-10-07T01:28:29.331Z,19.42
2022-10-07T01:30:58.951Z,14.25
2022-10-07T01:33:31.028Z,21.60
2022-10-07T01:36:09.029Z,16.00
2022-10-07T01:38:38.696Z,20.52
2022-10-07T01:41:12.061Z,16.92
2022-10-07T01:43:40.023Z,18.02
2022-10-07T01:46:09.950Z,13.75
2022-10-07T01:48:37.315Z,19.73
2022-10-07T01:51:07.214Z,17.00
2022-10-07T01:54:02.600Z,15.32
2022-10-07T01:57:15.476Z,16.50
2022-10-07T01:59:53.527Z,19.92
2022-10-07T02:02:39.541Z,16.77
2022-10-07T02:05:42.843Z,16.23
2022-10-07T02:08:32.331Z,19.98
2022-10-07T02:11:25.811Z,17.90
2022-10-07T02:14:08.621Z,17.58
2022-10-07T02:16:44.229Z,17.55
2022-10-07T02:19:19.861Z,16.77
2022-10-07T02:21:49.340Z,16.83
2022-10-07T02:24:19.274Z,17.08
2022-10-07T02:26:47.497Z,16.38
2022-10-07T02:29:16.543Z,22.38
2022-10-07T02:31:45.063Z,16.42
2022-10-07T02:34:19.740Z,14.70
2022-10-07T02:36:51.970Z,13.32
2022-10-07T02:39:19.272Z,16.08
2022-10-07T02:41:51.022Z,13.55
2022-10-07T02:44:42.700Z,15.35
2022-10-07T02:47:16.207Z,18.05
2022-10-07T02:49:48.073Z,19.25
2022-10-07T02:52:17.805Z,19.42
2022-10-07T02:54:56.744Z,20.67
2022-10-07T02:57:25.248Z,18.05
2022-10-07T02:59:53.356Z,15.55
2022-10-07T03:02:36.452Z,15.52
2022-10-07T03:05:04.294Z,18.50
2022-10-07T03:07:32.871Z,19.38
2022-10-07T03:10:00.276Z,18.60
2022-10-07T03:12:28.959Z,17.05
2022-10-07T03:14:56.630Z,17.95
2022-10-07T03:17:23.863Z,19.13
2022-10-07T03:19:51.161Z,17.48
2022-10-07T03:22:18.517Z,20.13
2022-10-07T03:24:45.815Z,15.82
2022-10-07T03:27:13.126Z,17.13
2022-10-07T03:29:40.461Z,20.42
2022-10-07T03:32:08.929Z,17.17
2022-10-07T03:34:36.170Z,18.17
2022-10-07T03:37:04.403Z,15.27
2022-10-07T03:39:33.092Z,19.27
2022-10-07T03:42:00.866Z,15.90
2022-10-07T03:44:28.473Z,15.75
2022-10-07T03:46:56.862Z,21.85
2022-10-07T03:49:26.424Z,16.92
2022-10-07T03:51:53.706Z,20.60
2022-10-07T03:54:21.485Z,14.43
2022-10-07T03:56:48.727Z,14.32
2022-10-07T03:59:16.016Z,15.95
2022-10-07T04:01:43.402Z,20.75
2022-10-07T04:04:11.911Z,11.20
2022-10-07T04:06:39.193Z,17.35
2022-10-07T04:09:13.629Z,16.42
2022-10-07T04:11:41.750Z,14.40
2022-10-07T04:14:10.015Z,15.18
2022-10-07T04:16:39.083Z,13.75
2022-10-07T04:19:08.831Z,20.38
2022-10-07T04:21:36.151Z,16.25
2022-10-07T04:24:04.423Z,17.90
2022-10-07T04:26:31.991Z,14.55
2022-10-07T04:29:00.148Z,15.85
2022-10-07T04:31:28.163Z,14.52
2022-10-07T04:34:03.378Z,16.42
2022-10-07T04:36:35.363Z,13.35
2022-10-07T04:39:14.583Z,14.25
2022-10-07T04:41:48.946Z,18.25
2022-10-07T04:44:21.205Z,18.80
2022-10-07T04:46:57.245Z,17.92
2022-10-07T04:49:27.307Z,17.05
2022-10-07T04:51:56.723Z,14.18
2022-10-07T04:54:26.483Z,19.17
2022-10-07T04:56:55.784Z,18.10
2022-10-07T04:59:29.170Z,21.40
2022-10-07T05:01:58.149Z,15.82
2022-10-07T05:04:26.089Z,17.42
2022-10-07T05:06:54.441Z,18.83
2022-10-07T05:09:21.967Z,17.00
2022-10-07T05:11:52.486Z,19.13
2022-10-07T05:14:21.857Z,17.75
2022-10-07T05:19:20.732Z,19.05
2022-10-07T05:21:48.697Z,17.05
2022-10-07T05:24:15.951Z,17.00
2022-10-07T05:26:43.428Z,17.50
2022-10-07T05:29:10.693Z,16.70
2022-10-07T05:31:45.261Z,16.33
2022-10-07T05:34:16.080Z,16.75
2022-10-07T05:36:43.978Z,19.40
2022-10-07T05:39:12.142Z,15.70
2022-10-07T05:41:49.853Z,17.33
2022-10-07T05:44:20.551Z,28.95
2022-10-07T05:46:50.184Z,40.30
2022-10-07T05:49:18.585Z,36.10
2022-10-07T05:51:46.126Z,29.80
2022-10-07T05:54:13.499Z,27.23
2022-10-07T05:56:43.316Z,18.65
2022-10-07T05:59:10.658Z,18.17
2022-10-07T06:01:42.213Z,15.93
2022-10-07T06:04:14.592Z,18.85
2022-10-07T06:06:45.574Z,18.75
2022-10-07T06:09:32.506Z,18.95
2022-10-07T06:12:22.878Z,17.35
2022-10-07T06:14:52.411Z,21.75
2022-10-07T06:17:19.754Z,22.27
2022-10-07T06:19:48.744Z,28.95
2022-10-07T06:22:18.296Z,29.87
2022-10-07T06:24:45.943Z,22.40
2022-10-07T06:27:13.365Z,19.35
2022-10-07T06:29:44.095Z,20.85
2022-10-07T06:32:11.833Z,16.17
2022-10-07T06:34:40.555Z,21.13
2022-10-07T06:37:07.837Z,21.70
2022-10-07T06:39:35.198Z,21.45
2022-10-07T06:42:02.440Z,19.92
2022-10-07T06:44:38.817Z,20.33
2022-10-07T06:47:11.730Z,19.00
2022-10-07T06:49:41.111Z,19.90
2022-10-07T06:52:08.352Z,23.17
2022-10-07T06:54:36.590Z,20.05
2022-10-07T06:57:20.434Z,17.90
2022-10-07T06:59:54.912Z,25.60
2022-10-07T07:04:52.924Z,23.20
2022-10-07T07:07:24.453Z,22.85
2022-10-07T07:09:52.100Z,35.05
2022-10-07T07:12:22.694Z,37.78
2022-10-07T07:14:50.406Z,27.88
2022-10-07T07:17:19.542Z,26.97
2022-10-07T07:19:46.809Z,28.98
2022-10-07T07:22:14.224Z,23.17
2022-10-07T07:24:43.203Z,21.13
2022-10-07T07:27:12.231Z,24.27
2022-10-07T07:29:39.753Z,18.63
2022-10-07T07:32:08.311Z,22.58
2022-10-07T07:34:39.103Z,30.83
2022-10-07T07:37:08.407Z,31.20
2022-10-07T07:39:42.700Z,25.98
2022-10-07T07:42:13.200Z,21.52
2022-10-07T07:44:40.584Z,26.13
2022-10-07T07:47:11.018Z,25.45
2022-10-07T07:49:39.489Z,21.30
2022-10-07T07:52:10.189Z,21.58
2022-10-07T07:54:43.471Z,27.20
2022-10-07T07:57:11.496Z,25.23
2022-10-07T07:59:38.796Z,19.92
2022-10-07T08:02:08.012Z,37.90
2022-10-07T08:04:37.904Z,29.38
2022-10-07T08:07:05.720Z,31.38
2022-10-07T08:09:33.414Z,22.95
2022-10-07T08:12:01.225Z,26.98
2022-10-07T08:14:28.491Z,29.23
2022-10-07T08:16:57.777Z,36.05
2022-10-07T08:19:29.621Z,21.10
2022-10-07T08:21:58.593Z,36.08
2022-10-07T08:24:27.975Z,26.08
2022-10-07T08:26:55.377Z,26.35
2022-10-07T08:29:24.002Z,26.80
2022-10-07T08:31:52.338Z,29.95
2022-10-07T08:34:19.673Z,23.15
2022-10-07T08:36:48.804Z,24.25
2022-10-07T08:39:16.804Z,33.30
2022-10-07T08:42:13.159Z,26.13
2022-10-07T08:44:43.439Z,25.25
2022-10-07T08:49:43.379Z,26.73
2022-10-07T08:52:39.078Z,28.42
2022-10-07T08:55:20.454Z,21.83
2022-10-07T08:58:05.599Z,26.13
2022-10-07T09:00:41.218Z,28.00
2022-10-07T09:03:20.335Z,19.20
2022-10-07T09:05:51.763Z,25.85
2022-10-07T09:08:27.350Z,20.92
2022-10-07T09:10:58.277Z,15.07
2022-10-07T09:13:29.734Z,20.88
2022-10-07T09:16:04.266Z,26.30
2022-10-07T09:18:45.262Z,21.92
2022-10-07T09:21:16.775Z,23.05
2022-10-07T09:23:45.859Z,21.55
2022-10-07T09:26:14.922Z,18.35
2022-10-07T09:28:42.789Z,18.02
2022-10-07T09:31:13.692Z,18.48
2022-10-07T09:33:53.037Z,19.83
2022-10-07T09:36:20.399Z,17.63
2022-10-07T09:38:52.567Z,23.63
2022-10-07T09:41:29.064Z,12.35
2022-10-07T09:44:00.717Z,22.35
2022-10-07T09:46:51.146Z,18.35
2022-10-07T09:49:41.628Z,15.55
2022-10-07T09:52:27.478Z,18.08
2022-10-07T09:54:57.036Z,20.08
2022-10-07T09:57:35.358Z,19.15
2022-10-07T10:00:12.006Z,17.85
2022-10-07T10:03:06.231Z,18.85
2022-10-07T10:05:35.980Z,17.33
2022-10-07T10:08:23.598Z,14.15
2022-10-07T10:10:59.054Z,15.18
2022-10-07T10:13:38.362Z,15.48
2022-10-07T10:16:09.905Z,17.13
2022-10-07T10:18:41.636Z,20.15
2022-10-07T10:21:20.057Z,13.02
2022-10-07T10:23:50.205Z,13.38
2022-10-07T10:26:32.491Z,14.57
2022-10-07T10:29:07.409Z,20.38
2022-10-07T10:31:56.599Z,19.75
2022-10-07T10:34:30.085Z,16.85
2022-10-07T10:37:14.422Z,17.73
2022-10-07T10:39:48.080Z,13.25
2022-10-07T10:42:21.474Z,14.48
2022-10-07T10:45:07.977Z,14.98
2022-10-07T10:47:54.571Z,16.40
2022-10-07T10:50:53.572Z,14.80
2022-10-07T10:53:42.878Z,11.63
2022-10-07T10:56:36.234Z,9.55
2022-10-07T10:59:03.391Z,14.52
2022-10-07T11:01:39.055Z,16.48
2022-10-07T11:04:21.750Z,20.67
2022-10-07T11:06:53.658Z,15.07
2022-10-07T11:10:07.335Z,14.90
2022-10-07T11:12:39.518Z,15.45
2022-10-07T11:15:57.101Z,14.48
2022-10-07T11:18:34.978Z,12.40
2022-10-07T11:21:04.423Z,14.05
2022-10-07T11:23:46.772Z,16.55
2022-10-07T11:26:23.802Z,14.63
2022-10-07T11:28:51.902Z,16.75
2022-10-07T11:31:36.145Z,19.15
2022-10-07T11:34:04.802Z,13.55
2022-10-07T11:37:07.366Z,13.27
2022-10-07T11:39:38.893Z,17.40
2022-10-07T11:42:11.035Z,11.98
2022-10-07T11:44:48.316Z,14.00
2022-10-07T11:47:22.479Z,11.30
2022-10-07T11:50:10.680Z,12.93
2022-10-07T11:52:45.569Z,11.70
2022-10-07T11:55:26.330Z,10.48
2022-10-07T11:57:57.853Z,14.63
2022-10-07T12:00:34.095Z,12.27
2022-10-07T12:03:13.601Z,12.25
2022-10-07T12:05:53.338Z,11.55
2022-10-07T12:08:35.391Z,12.20
2022-10-07T12:11:12.427Z,13.95
2022-10-07T12:13:46.995Z,12.95
2022-10-07T12:16:24.009Z,10.95
2022-10-07T12:19:06.726Z,14.00
2022-10-07T12:22:05.552Z,14.73
2022-10-07T12:24:34.983Z,10.25
2022-10-07T12:27:16.298Z,11.67
2022-10-07T12:29:58.788Z,12.98
2022-10-07T12:33:02.225Z,15.02
2022-10-07T12:35:34.557Z,12.77
2022-10-07T12:38:02.520Z,12.98
2022-10-07T12:40:30.512Z,14.18
2022-10-07T12:43:10.449Z,12.55
2022-10-07T12:45:40.498Z,12.13
2022-10-07T12:48:15.125Z,15.80
2022-10-07T12:50:43.162Z,9.63
2022-10-07T12:53:11.389Z,9.07
2022-10-07T12:55:42.102Z,10.48
2022-10-07T12:59:00.164Z,12.57
2022-10-07T13:01:39.826Z,11.20
2022-10-07T13:04:19.122Z,12.27
2022-10-07T13:07:23.300Z,8.57
2022-10-07T13:10:22.656Z,10.57
2022-10-07T13:13:02.838Z,11.02
2022-10-07T13:15:45.112Z,13.70
2022-10-07T13:18:27.683Z,11.90
2022-10-07T13:21:07.390Z,12.35
2022-10-07T13:23:34.812Z,9.80
2022-10-07T13:26:03.469Z,9.32
2022-10-07T13:28:37.410Z,8.27
2022-10-07T13:31:25.927Z,11.55
2022-10-07T13:33:54.103Z,11.43
2022-10-07T13:36:22.787Z,9.48
2022-10-07T13:39:13.034Z,10.10
2022-10-07T13:41:43.746Z,10.75
2022-10-07T13:44:15.187Z,9.65
2022-10-07T13:46:55.428Z,13.27
2022-10-07T13:51:56.350Z,8.82
2022-10-07T13:54:26.913Z,9.73
2022-10-07T13:56:54.382Z,8.77
2022-10-07T13:59:22.257Z,10.07
2022-10-07T14:01:52.263Z,6.88
2022-10-07T14:04:28.574Z,9.57
2022-10-07T14:07:20.036Z,10.48
2022-10-07T14:10:01.537Z,9.43
2022-10-07T14:12:31.802Z,9.23
2022-10-07T14:17:32.772Z,11.77
2022-10-07T14:22:38.230Z,10.80
2022-10-07T14:25:07.617Z,7.22
2022-10-07T14:27:54.567Z,7.05
2022-10-07T14:30:25.029Z,5.18
2022-10-07T14:33:23.549Z,6.40
2022-10-07T14:36:18.039Z,8.98
2022-10-07T14:38:47.599Z,9.02
2022-10-07T14:41:18.262Z,5.93
2022-10-07T14:43:47.633Z,10.20
2022-10-07T14:46:19.307Z,12.57
2022-10-07T14:48:47.456Z,7.20
2022-10-07T14:51:21.055Z,7.13
2022-10-07T14:53:54.847Z,12.32
2022-10-07T14:56:25.329Z,5.88
2022-10-07T14:58:52.644Z,7.72
2022-10-07T15:01:20.065Z,10.43
2022-10-07T15:03:48.706Z,8.80
2022-10-07T15:06:17.167Z,8.48
2022-10-07T15:08:46.082Z,7.07
2022-10-07T15:11:18.746Z,9.88
2022-10-07T15:13:47.694Z,8.63
2022-10-07T15:16:23.380Z,8.98
2022-10-07T15:18:52.962Z,8.38
2022-10-07T15:21:22.239Z,7.05
2022-10-07T15:23:51.596Z,10.95
2022-10-07T15:26:21.229Z,8.27
2022-10-07T15:28:56.400Z,6.90
2022-10-07T15:31:29.151Z,7.93
2022-10-07T15:33:57.775Z,6.15
2022-10-07T15:36:26.835Z,7.47
2022-10-07T15:38:54.828Z,8.10
2022-10-07T15:41:48.498Z,9.38
2022-10-07T15:44:18.206Z,7.85
2022-10-07T15:46:47.723Z,6.82
2022-10-07T15:49:17.065Z,6.65
2022-10-07T15:51:46.589Z,7.57
2022-10-07T15:54:13.921Z,8.88
2022-10-07T15:56:42.690Z,7.70
2022-10-07T15:59:10.133Z,6.80
2022-10-07T16:01:37.675Z,8.82
2022-10-07T16:04:05.946Z,8.55
2022-10-07T16:06:35.410Z,8.38
2022-10-07T16:09:03.747Z,7.77
2022-10-07T16:11:33.089Z,8.52
2022-10-07T16:14:02.035Z,7.33
2022-10-07T16:16:33.378Z,6.63
2022-10-07T16:19:01.132Z,5.53
2022-10-07T16:21:30.341Z,7.63
2022-10-07T16:24:08.640Z,8.52
2022-10-07T16:26:37.369Z,4.97
2022-10-07T16:29:29.564Z,7.70
2022-10-07T16:31:59.037Z,10.23
2022-10-07T16:34:28.068Z,6.43
2022-10-07T16:36:55.976Z,7.68
2022-10-07T16:39:23.585Z,7.47
2022-10-07T16:41:52.245Z,8.40
2022-10-07T16:44:20.570Z,5.40
2022-10-07T16:46:48.486Z,7.25
2022-10-07T16:49:17.369Z,11.35
2022-10-07T16:51:45.143Z,8.68
2022-10-07T16:54:17.405Z,8.88
2022-10-07T16:56:47.863Z,8.05
2022-10-07T16:59:24.105Z,13.85
2022-10-07T17:01:56.697Z,8.10
2022-10-07T17:04:24.954Z,7.68
2022-10-07T17:06:53.211Z,9.82
2022-10-07T17:09:21.802Z,8.57
2022-10-07T17:11:49.290Z,10.35
2022-10-07T17:14:19.453Z,6.97
2022-10-07T17:19:20.571Z,9.30
2022-10-07T17:21:49.001Z,7.80
2022-10-07T17:24:17.877Z,11.57
2022-10-07T17:26:45.662Z,9.07
2022-10-07T17:29:15.007Z,8.75
2022-10-07T17:31:43.492Z,10.80
2022-10-07T17:34:11.878Z,11.13
2022-10-07T17:36:40.011Z,11.88
2022-10-07T17:39:07.898Z,11.98
2022-10-07T17:41:36.718Z,10.90
2022-10-07T17:44:10.340Z,15.60
2022-10-07T17:46:39.379Z,10.98
2022-10-07T17:49:09.456Z,12.55
2022-10-07T17:51:37.433Z,12.93
2022-10-07T17:54:06.055Z,12.52
2022-10-07T17:56:34.610Z,10.35
2022-10-07T17:59:02.598Z,12.35
2022-10-07T18:01:33.814Z,12.85
2022-10-07T18:04:03.236Z,11.23
2022-10-07T18:06:34.150Z,12.00
2022-10-07T18:09:04.478Z,15.05
2022-10-07T18:14:36.459Z,10.18
2022-10-07T18:17:04.681Z,11.80
2022-10-07T18:19:32.325Z,15.73
2022-10-07T18:21:59.599Z,22.38
2022-10-07T18:24:28.836Z,22.38
2022-10-07T18:27:00.316Z,20.83
2022-10-07T18:29:37.570Z,19.50
2022-10-07T18:32:06.317Z,16.55
2022-10-07T18:34:33.661Z,15.77
2022-10-07T18:37:01.370Z,16.38
2022-10-07T18:39:29.692Z,15.30
2022-10-07T18:41:58.023Z,16.55
2022-10-07T18:44:25.711Z,18.90
2022-10-07T18:46:55.576Z,16.70
2022-10-07T18:49:23.044Z,18.40
2022-10-07T18:51:51.172Z,21.08
2022-10-07T18:54:19.354Z,18.63
2022-10-07T18:56:47.567Z,18.70
2022-10-07T18:59:15.082Z,15.73
2022-10-07T19:01:44.370Z,20.52
2022-10-07T19:04:15.154Z,15.20
2022-10-07T19:06:46.279Z,17.25
2022-10-07T19:09:16.343Z,17.70
2022-10-07T19:11:43.923Z,15.65
2022-10-07T19:14:11.681Z,20.65
2022-10-07T19:16:41.558Z,17.02
2022-10-07T19:19:12.196Z,17.17
2022-10-07T19:21:40.281Z,15.57
2022-10-07T19:24:07.736Z,14.55
2022-10-07T19:26:42.315Z,16.50
2022-10-07T19:29:10.842Z,21.10
2022-10-07T19:31:41.367Z,17.35
2022-10-07T19:34:11.086Z,14.95
2022-10-07T19:36:46.667Z,16.02
2022-10-07T19:39:15.766Z,29.10
2022-10-07T19:41:44.266Z,21.85
2022-10-07T19:44:12.504Z,21.20
2022-10-07T19:46:39.892Z,31.35
2022-10-07T19:49:09.243Z,21.75
2022-10-07T19:51:37.597Z,25.77
2022-10-07T19:54:09.925Z,22.17
2022-10-07T19:56:38.276Z,20.45
2022-10-07T19:59:10.854Z,24.75
2022-10-07T20:01:41.784Z,20.52
2022-10-07T20:04:14.661Z,16.33
2022-10-07T20:06:42.684Z,50.20
2022-10-07T20:09:12.916Z,25.55
2022-10-07T20:14:07.647Z,17.65
2022-10-07T20:16:37.325Z,19.83
2022-10-07T20:19:06.904Z,18.85
2022-10-07T20:21:36.623Z,17.20
2022-10-07T20:24:05.304Z,23.58
2022-10-07T20:26:38.220Z,15.38
2022-10-07T20:29:07.447Z,18.58
2022-10-07T20:31:36.615Z,16.38
2022-10-07T20:34:04.401Z,18.00
2022-10-07T20:36:34.154Z,18.27
2022-10-07T20:39:25.920Z,13.80
2022-10-07T20:42:12.394Z,18.90
2022-10-07T20:44:39.753Z,13.65
2022-10-07T20:47:08.961Z,19.60
2022-10-07T20:49:38.794Z,23.23
2022-10-07T20:52:08.932Z,21.13
2022-10-07T20:54:36.238Z,16.58
2022-10-07T20:57:04.134Z,19.25
2022-10-07T20:59:32.376Z,17.67
2022-10-07T21:02:00.787Z,18.63
2022-10-07T21:04:29.101Z,16.13
2022-10-07T21:06:57.044Z,20.73
2022-10-07T21:09:25.267Z,21.40
2022-10-07T21:11:53.512Z,22.73
2022-10-07T21:14:21.044Z,26.70
2022-10-07T21:16:48.520Z,18.60
2022-10-07T21:19:17.118Z,19.00
2022-10-07T21:21:44.397Z,15.30
2022-10-07T21:24:11.580Z,18.77
2022-10-07T21:26:38.830Z,18.13
2022-10-07T21:29:08.205Z,18.80
2022-10-07T21:31:35.942Z,15.23
2022-10-07T21:34:07.827Z,15.98
2022-10-07T21:36:49.234Z,18.00
2022-10-07T21:39:19.155Z,15.65
2022-10-07T21:41:47.499Z,21.02
2022-10-07T21:44:14.891Z,18.85
2022-10-07T21:46:42.823Z,16.98
2022-10-07T21:49:10.128Z,17.30
2022-10-07T21:51:38.215Z,15.25
2022-10-07T21:54:05.778Z,18.08
2022-10-07T21:56:33.801Z,18.40
2022-10-07T21:59:04.377Z,16.35
2022-10-07T22:01:32.524Z,17.58
2022-10-07T22:04:01.496Z,17.17
2022-10-07T22:06:49.469Z,15.65
2022-10-07T22:09:18.572Z,15.18
2022-10-07T22:11:46.250Z,15.63
2022-10-07T22:14:13.693Z,18.85
2022-10-07T22:16:41.899Z,14.50
2022-10-07T22:19:10.631Z,15.18
2022-10-07T22:21:40.255Z,16.30
2022-10-07T22:24:09.040Z,13.35
2022-10-07T22:26:47.971Z,16.77
2022-10-07T22:29:16.762Z,15.82
2022-10-07T22:31:44.275Z,11.85
2022-10-07T22:34:30.470Z,19.70
2022-10-07T22:37:00.554Z,17.02
2022-10-07T22:39:30.802Z,13.38
2022-10-07T22:41:58.646Z,19.20
2022-10-07T22:44:28.053Z,17.88
2022-10-07T22:46:56.731Z,15.02
2022-10-07T22:49:30.617Z,16.35
2022-10-07T22:51:59.848Z,18.17
2022-10-07T22:54:27.537Z,12.20
2022-10-07T22:56:54.889Z,10.77
2022-10-07T22:59:22.189Z,15.35
2022-10-07T23:01:49.449Z,13.98
2022-10-07T23:04:20.157Z,10.55
2022-10-07T23:06:47.581Z,13.10
2022-10-07T23:09:14.790Z,9.63
2022-10-07T23:11:42.031Z,10.13
2022-10-07T23:14:09.312Z,15.93
2022-10-07T23:16:36.506Z,12.10
2022-10-07T23:19:03.783Z,14.00
2022-10-07T23:21:34.416Z,10.63
2022-10-07T23:24:07.428Z,14.30
2022-10-07T23:26:35.855Z,11.02
2022-10-07T23:29:03.675Z,12.18
2022-10-07T23:31:32.238Z,13.15
2022-10-07T23:34:01.238Z,11.00
2022-10-07T23:36:29.082Z,13.07
2022-10-07T23:38:56.345Z,9.90
2022-10-07T23:41:25.418Z,15.63
2022-10-07T23:43:55.288Z,14.80
2022-10-07T23:46:24.358Z,11.18
2022-10-07T23:48:52.075Z,10.98
2022-10-07T23:51:22.378Z,12.52
2022-10-07T23:53:49.838Z,12.65
2022-10-07T23:56:18.659Z,17.08
2022-10-07T23:58:46.074Z,19.00
